sensor_id;sensor_type;location;lat;lon;timestamp;P1;durP1;ratioP1;P2;durP2;ratioP2
61250;SDS011;47126;47.508;8.590;2023-02-28T00:00:12;15.02;;;7.07;;
61250;SDS011;47126;47.508;8.590;2023-02-28T00:02:39;13.57;;;7.18;;
61250;SDS011;47126;47.508;8.590;2023-02-28T00:05:05;14.77;;;7.53;;
61250;SDS011;47126;47.508;8.590;2023-02-28T00:07:32;15.20;;;7.30;;
61250;SDS011;47126;47.508;8.590;2023-02-28T00:09:58;16.17;;;7.93;;
61250;SDS011;47126;47.508;8.590;2023-02-28T00:12:25;15.27;;;8.10;;
61250;SDS011;47126;47.508;8.590;2023-02-28T00:14:51;14.40;;;8.02;;
61250;SDS011;47126;47.508;8.590;2023-02-28T00:17:17;15.73;;;8.10;;
61250;SDS011;47126;47.508;8.590;2023-02-28T00:19:45;17.08;;;7.82;;
61250;SDS011;47126;47.508;8.590;2023-02-28T00:22:11;15.32;;;6.95;;
61250;SDS011;47126;47.508;8.590;2023-02-28T00:24:37;15.50;;;7.25;;
61250;SDS011;47126;47.508;8.590;2023-02-28T00:27:03;14.52;;;7.53;;
61250;SDS011;47126;47.508;8.590;2023-02-28T00:29:30;19.27;;;8.18;;
61250;SDS011;47126;47.508;8.590;2023-02-28T00:31:55;15.38;;;7.68;;
61250;SDS011;47126;47.508;8.590;2023-02-28T00:34:22;15.88;;;7.50;;
61250;SDS011;47126;47.508;8.590;2023-02-28T00:36:48;23.63;;;9.18;;
61250;SDS011;47126;47.508;8.590;2023-02-28T00:39:14;13.43;;;7.05;;
61250;SDS011;47126;47.508;8.590;2023-02-28T00:41:40;15.95;;;7.93;;
61250;SDS011;47126;47.508;8.590;2023-02-28T00:44:06;15.88;;;8.27;;
61250;SDS011;47126;47.508;8.590;2023-02-28T00:46:32;17.23;;;7.93;;
61250;SDS011;47126;47.508;8.590;2023-02-28T00:48:59;16.80;;;7.88;;
61250;SDS011;47126;47.508;8.590;2023-02-28T00:51:25;15.98;;;8.10;;
61250;SDS011;47126;47.508;8.590;2023-02-28T00:53:51;16.27;;;8.35;;
61250;SDS011;47126;47.508;8.590;2023-02-28T00:56:16;14.60;;;8.23;;
61250;SDS011;47126;47.508;8.590;2023-02-28T00:58:42;18.02;;;8.20;;
61250;SDS011;47126;47.508;8.590;2023-02-28T01:01:08;15.25;;;8.07;;
61250;SDS011;47126;47.508;8.590;2023-02-28T01:03:34;15.25;;;8.23;;
61250;SDS011;47126;47.508;8.590;2023-02-28T01:06:01;15.52;;;8.23;;
61250;SDS011;47126;47.508;8.590;2023-02-28T01:08:26;16.17;;;8.18;;
61250;SDS011;47126;47.508;8.590;2023-02-28T01:10:53;14.85;;;7.60;;
61250;SDS011;47126;47.508;8.590;2023-02-28T01:13:19;16.23;;;7.70;;
61250;SDS011;47126;47.508;8.590;2023-02-28T01:15:48;13.98;;;7.85;;
61250;SDS011;47126;47.508;8.590;2023-02-28T01:18:15;16.08;;;8.50;;
61250;SDS011;47126;47.508;8.590;2023-02-28T01:20:41;15.73;;;8.23;;
61250;SDS011;47126;47.508;8.590;2023-02-28T01:23:08;14.93;;;7.95;;
61250;SDS011;47126;47.508;8.590;2023-02-28T01:25:34;17.45;;;8.18;;
61250;SDS011;47126;47.508;8.590;2023-02-28T01:28:01;15.93;;;8.50;;
61250;SDS011;47126;47.508;8.590;2023-02-28T01:30:27;18.92;;;8.57;;
61250;SDS011;47126;47.508;8.590;2023-02-28T01:32:53;15.00;;;8.13;;
61250;SDS011;47126;47.508;8.590;2023-02-28T01:35:19;14.13;;;7.60;;
61250;SDS011;47126;47.508;8.590;2023-02-28T01:37:45;15.50;;;8.07;;
61250;SDS011;47126;47.508;8.590;2023-02-28T01:40:11;15.70;;;8.70;;
61250;SDS011;47126;47.508;8.590;2023-02-28T01:42:37;17.30;;;8.73;;
61250;SDS011;47126;47.508;8.590;2023-02-28T01:45:06;17.40;;;8.25;;
61250;SDS011;47126;47.508;8.590;2023-02-28T01:47:38;15.48;;;8.00;;
61250;SDS011;47126;47.508;8.590;2023-02-28T01:50:06;16.50;;;8.43;;
61250;SDS011;47126;47.508;8.590;2023-02-28T01:52:33;15.18;;;8.80;;
61250;SDS011;47126;47.508;8.590;2023-02-28T01:55:00;14.32;;;8.50;;
61250;SDS011;47126;47.508;8.590;2023-02-28T01:57:32;17.00;;;8.77;;
61250;SDS011;47126;47.508;8.590;2023-02-28T02:00:24;17.15;;;8.88;;
61250;SDS011;47126;47.508;8.590;2023-02-28T02:02:51;16.42;;;8.80;;
61250;SDS011;47126;47.508;8.590;2023-02-28T02:05:20;20.00;;;8.13;;
61250;SDS011;47126;47.508;8.590;2023-02-28T02:07:47;16.50;;;8.25;;
61250;SDS011;47126;47.508;8.590;2023-02-28T02:10:21;19.02;;;8.07;;
61250;SDS011;47126;47.508;8.590;2023-02-28T02:18:04;15.18;;;8.70;;
61250;SDS011;47126;47.508;8.590;2023-02-28T02:20:44;17.23;;;8.20;;
61250;SDS011;47126;47.508;8.590;2023-02-28T02:23:18;15.50;;;8.10;;
61250;SDS011;47126;47.508;8.590;2023-02-28T02:28:45;18.40;;;8.80;;
61250;SDS011;47126;47.508;8.590;2023-02-28T02:36:11;17.67;;;9.00;;
61250;SDS011;47126;47.508;8.590;2023-02-28T02:38:52;20.38;;;8.48;;
61250;SDS011;47126;47.508;8.590;2023-02-28T02:43:58;15.50;;;8.45;;
61250;SDS011;47126;47.508;8.590;2023-02-28T02:48:54;15.60;;;8.00;;
61250;SDS011;47126;47.508;8.590;2023-02-28T02:51:21;15.90;;;8.30;;
61250;SDS011;47126;47.508;8.590;2023-02-28T02:53:59;16.08;;;8.07;;
61250;SDS011;47126;47.508;8.590;2023-02-28T02:56:27;16.08;;;8.52;;
61250;SDS011;47126;47.508;8.590;2023-02-28T02:58:54;16.88;;;8.63;;
61250;SDS011;47126;47.508;8.590;2023-02-28T03:01:22;18.83;;;9.07;;
61250;SDS011;47126;47.508;8.590;2023-02-28T03:04:00;16.73;;;8.48;;
61250;SDS011;47126;47.508;8.590;2023-02-28T03:06:26;17.35;;;9.05;;
61250;SDS011;47126;47.508;8.590;2023-02-28T03:08:53;16.15;;;8.35;;
61250;SDS011;47126;47.508;8.590;2023-02-28T03:11:19;15.15;;;8.27;;
61250;SDS011;47126;47.508;8.590;2023-02-28T03:21:42;16.33;;;7.78;;
61250;SDS011;47126;47.508;8.590;2023-02-28T03:24:16;19.55;;;8.55;;
61250;SDS011;47126;47.508;8.590;2023-02-28T03:26:45;15.05;;;8.18;;
61250;SDS011;47126;47.508;8.590;2023-02-28T03:29:15;15.55;;;8.18;;
61250;SDS011;47126;47.508;8.590;2023-02-28T03:32:18;13.20;;;7.80;;
61250;SDS011;47126;47.508;8.590;2023-02-28T03:34:39;16.40;;;8.63;;
61250;SDS011;47126;47.508;8.590;2023-02-28T03:37:08;18.40;;;8.40;;
61250;SDS011;47126;47.508;8.590;2023-02-28T03:39:38;16.90;;;7.68;;
61250;SDS011;47126;47.508;8.590;2023-02-28T03:42:07;14.77;;;7.45;;
61250;SDS011;47126;47.508;8.590;2023-02-28T03:44:39;14.98;;;7.85;;
61250;SDS011;47126;47.508;8.590;2023-02-28T03:47:10;17.10;;;7.50;;
61250;SDS011;47126;47.508;8.590;2023-02-28T03:52:05;17.27;;;7.28;;
61250;SDS011;47126;47.508;8.590;2023-02-28T03:54:32;18.85;;;8.30;;
61250;SDS011;47126;47.508;8.590;2023-02-28T03:57:03;14.50;;;7.80;;
61250;SDS011;47126;47.508;8.590;2023-02-28T03:59:36;15.98;;;8.30;;
61250;SDS011;47126;47.508;8.590;2023-02-28T04:02:03;15.30;;;8.00;;
61250;SDS011;47126;47.508;8.590;2023-02-28T04:04:29;16.92;;;7.63;;
61250;SDS011;47126;47.508;8.590;2023-02-28T04:07:06;17.50;;;8.07;;
61250;SDS011;47126;47.508;8.590;2023-02-28T04:09:32;16.35;;;9.23;;
61250;SDS011;47126;47.508;8.590;2023-02-28T04:11:58;15.07;;;7.72;;
61250;SDS011;47126;47.508;8.590;2023-02-28T04:14:24;13.65;;;7.50;;
61250;SDS011;47126;47.508;8.590;2023-02-28T04:16:50;15.40;;;8.18;;
61250;SDS011;47126;47.508;8.590;2023-02-28T04:19:17;15.10;;;7.43;;
61250;SDS011;47126;47.508;8.590;2023-02-28T04:21:44;16.02;;;7.47;;
61250;SDS011;47126;47.508;8.590;2023-02-28T04:24:11;14.35;;;8.07;;
61250;SDS011;47126;47.508;8.590;2023-02-28T04:26:44;14.50;;;7.43;;
61250;SDS011;47126;47.508;8.590;2023-02-28T04:29:11;14.05;;;7.53;;
61250;SDS011;47126;47.508;8.590;2023-02-28T04:31:38;13.35;;;6.95;;
61250;SDS011;47126;47.508;8.590;2023-02-28T04:34:04;13.93;;;7.95;;
61250;SDS011;47126;47.508;8.590;2023-02-28T04:36:31;14.82;;;8.23;;
61250;SDS011;47126;47.508;8.590;2023-02-28T04:38:57;13.43;;;6.80;;
61250;SDS011;47126;47.508;8.590;2023-02-28T04:41:23;12.77;;;6.72;;
61250;SDS011;47126;47.508;8.590;2023-02-28T04:43:50;14.15;;;7.13;;
61250;SDS011;47126;47.508;8.590;2023-02-28T04:46:17;14.05;;;7.85;;
61250;SDS011;47126;47.508;8.590;2023-02-28T04:48:43;15.68;;;7.25;;
61250;SDS011;47126;47.508;8.590;2023-02-28T04:51:11;15.13;;;7.72;;
61250;SDS011;47126;47.508;8.590;2023-02-28T04:53:38;16.83;;;7.72;;
61250;SDS011;47126;47.508;8.590;2023-02-28T04:56:05;12.55;;;7.25;;
61250;SDS011;47126;47.508;8.590;2023-02-28T04:58:31;14.60;;;7.45;;
61250;SDS011;47126;47.508;8.590;2023-02-28T05:01:01;13.13;;;6.80;;
61250;SDS011;47126;47.508;8.590;2023-02-28T05:03:27;15.17;;;7.27;;
61250;SDS011;47126;47.508;8.590;2023-02-28T05:05:53;14.60;;;7.32;;
61250;SDS011;47126;47.508;8.590;2023-02-28T05:08:19;16.27;;;7.63;;
61250;SDS011;47126;47.508;8.590;2023-02-28T05:10:45;16.33;;;7.75;;
61250;SDS011;47126;47.508;8.590;2023-02-28T05:13:12;13.00;;;6.80;;
61250;SDS011;47126;47.508;8.590;2023-02-28T05:15:38;14.23;;;7.05;;
61250;SDS011;47126;47.508;8.590;2023-02-28T05:18:04;13.68;;;7.72;;
61250;SDS011;47126;47.508;8.590;2023-02-28T05:20:30;13.95;;;7.35;;
61250;SDS011;47126;47.508;8.590;2023-02-28T05:22:56;12.57;;;6.82;;
61250;SDS011;47126;47.508;8.590;2023-02-28T05:25:23;14.05;;;7.60;;
61250;SDS011;47126;47.508;8.590;2023-02-28T05:27:49;13.82;;;6.85;;
61250;SDS011;47126;47.508;8.590;2023-02-28T05:30:15;13.13;;;7.18;;
61250;SDS011;47126;47.508;8.590;2023-02-28T05:32:42;13.70;;;6.72;;
61250;SDS011;47126;47.508;8.590;2023-02-28T05:35:08;14.55;;;7.55;;
61250;SDS011;47126;47.508;8.590;2023-02-28T05:37:35;14.27;;;7.15;;
61250;SDS011;47126;47.508;8.590;2023-02-28T05:40:01;15.63;;;7.45;;
61250;SDS011;47126;47.508;8.590;2023-02-28T05:42:30;14.23;;;7.80;;
61250;SDS011;47126;47.508;8.590;2023-02-28T05:44:56;12.73;;;6.82;;
61250;SDS011;47126;47.508;8.590;2023-02-28T05:47:22;12.60;;;6.38;;
61250;SDS011;47126;47.508;8.590;2023-02-28T05:49:48;16.73;;;7.60;;
61250;SDS011;47126;47.508;8.590;2023-02-28T05:52:14;13.15;;;7.15;;
61250;SDS011;47126;47.508;8.590;2023-02-28T05:54:41;15.80;;;7.43;;
61250;SDS011;47126;47.508;8.590;2023-02-28T05:57:07;17.55;;;7.53;;
61250;SDS011;47126;47.508;8.590;2023-02-28T05:59:33;15.63;;;7.13;;
61250;SDS011;47126;47.508;8.590;2023-02-28T06:01:59;16.90;;;7.93;;
61250;SDS011;47126;47.508;8.590;2023-02-28T06:04:25;14.30;;;7.82;;
61250;SDS011;47126;47.508;8.590;2023-02-28T06:06:51;16.80;;;8.15;;
61250;SDS011;47126;47.508;8.590;2023-02-28T06:09:18;14.95;;;7.72;;
61250;SDS011;47126;47.508;8.590;2023-02-28T06:11:45;15.85;;;8.23;;
61250;SDS011;47126;47.508;8.590;2023-02-28T06:14:16;14.45;;;7.65;;
61250;SDS011;47126;47.508;8.590;2023-02-28T06:16:42;17.77;;;7.80;;
61250;SDS011;47126;47.508;8.590;2023-02-28T06:19:09;15.23;;;8.52;;
61250;SDS011;47126;47.508;8.590;2023-02-28T06:21:35;16.52;;;8.18;;
61250;SDS011;47126;47.508;8.590;2023-02-28T06:24:02;13.57;;;7.40;;
61250;SDS011;47126;47.508;8.590;2023-02-28T06:26:28;15.93;;;7.57;;
61250;SDS011;47126;47.508;8.590;2023-02-28T06:28:58;16.38;;;8.10;;
61250;SDS011;47126;47.508;8.590;2023-02-28T06:31:25;15.67;;;7.27;;
61250;SDS011;47126;47.508;8.590;2023-02-28T06:33:54;16.83;;;8.20;;
61250;SDS011;47126;47.508;8.590;2023-02-28T06:36:21;15.52;;;7.88;;
61250;SDS011;47126;47.508;8.590;2023-02-28T06:38:47;15.07;;;7.65;;
61250;SDS011;47126;47.508;8.590;2023-02-28T06:41:19;18.67;;;7.75;;
61250;SDS011;47126;47.508;8.590;2023-02-28T06:43:45;15.95;;;7.90;;
61250;SDS011;47126;47.508;8.590;2023-02-28T06:46:12;15.57;;;8.52;;
61250;SDS011;47126;47.508;8.590;2023-02-28T06:48:39;14.65;;;8.25;;
61250;SDS011;47126;47.508;8.590;2023-02-28T06:51:10;19.25;;;8.27;;
61250;SDS011;47126;47.508;8.590;2023-02-28T06:53:36;17.02;;;8.23;;
61250;SDS011;47126;47.508;8.590;2023-02-28T06:56:06;17.55;;;8.38;;
61250;SDS011;47126;47.508;8.590;2023-02-28T06:58:32;15.45;;;8.85;;
61250;SDS011;47126;47.508;8.590;2023-02-28T07:00:58;19.73;;;8.35;;
61250;SDS011;47126;47.508;8.590;2023-02-28T07:03:24;18.17;;;8.35;;
61250;SDS011;47126;47.508;8.590;2023-02-28T07:05:50;16.77;;;8.93;;
61250;SDS011;47126;47.508;8.590;2023-02-28T07:08:17;16.73;;;8.73;;
61250;SDS011;47126;47.508;8.590;2023-02-28T07:10:43;17.98;;;8.52;;
61250;SDS011;47126;47.508;8.590;2023-02-28T07:13:09;17.27;;;8.13;;
61250;SDS011;47126;47.508;8.590;2023-02-28T07:15:38;14.38;;;7.72;;
61250;SDS011;47126;47.508;8.590;2023-02-28T07:18:04;15.20;;;7.97;;
61250;SDS011;47126;47.508;8.590;2023-02-28T07:20:30;24.88;;;9.65;;
61250;SDS011;47126;47.508;8.590;2023-02-28T07:22:57;15.10;;;8.48;;
61250;SDS011;47126;47.508;8.590;2023-02-28T07:25:23;17.60;;;8.88;;
61250;SDS011;47126;47.508;8.590;2023-02-28T07:27:50;15.95;;;8.27;;
61250;SDS011;47126;47.508;8.590;2023-02-28T07:30:16;17.10;;;8.80;;
61250;SDS011;47126;47.508;8.590;2023-02-28T07:32:43;19.55;;;9.55;;
61250;SDS011;47126;47.508;8.590;2023-02-28T07:35:09;16.85;;;8.55;;
61250;SDS011;47126;47.508;8.590;2023-02-28T07:37:35;18.80;;;8.90;;
61250;SDS011;47126;47.508;8.590;2023-02-28T07:40:04;21.45;;;8.73;;
61250;SDS011;47126;47.508;8.590;2023-02-28T07:42:36;21.20;;;8.63;;
61250;SDS011;47126;47.508;8.590;2023-02-28T07:45:03;17.83;;;9.32;;
61250;SDS011;47126;47.508;8.590;2023-02-28T07:47:29;16.02;;;7.88;;
61250;SDS011;47126;47.508;8.590;2023-02-28T07:49:55;19.85;;;9.10;;
61250;SDS011;47126;47.508;8.590;2023-02-28T07:52:21;18.20;;;8.82;;
61250;SDS011;47126;47.508;8.590;2023-02-28T07:54:51;21.80;;;8.70;;
61250;SDS011;47126;47.508;8.590;2023-02-28T07:57:17;19.42;;;9.18;;
61250;SDS011;47126;47.508;8.590;2023-02-28T07:59:43;17.60;;;8.98;;
61250;SDS011;47126;47.508;8.590;2023-02-28T08:02:13;16.92;;;8.38;;
61250;SDS011;47126;47.508;8.590;2023-02-28T08:04:39;16.27;;;8.48;;
61250;SDS011;47126;47.508;8.590;2023-02-28T08:07:05;16.23;;;8.77;;
61250;SDS011;47126;47.508;8.590;2023-02-28T08:09:31;17.35;;;8.77;;
61250;SDS011;47126;47.508;8.590;2023-02-28T08:11:58;19.95;;;9.18;;
61250;SDS011;47126;47.508;8.590;2023-02-28T08:14:24;20.48;;;8.70;;
61250;SDS011;47126;47.508;8.590;2023-02-28T08:16:50;17.15;;;9.07;;
61250;SDS011;47126;47.508;8.590;2023-02-28T08:19:16;16.80;;;8.30;;
61250;SDS011;47126;47.508;8.590;2023-02-28T08:21:42;17.35;;;9.13;;
61250;SDS011;47126;47.508;8.590;2023-02-28T08:24:08;23.48;;;9.30;;
61250;SDS011;47126;47.508;8.590;2023-02-28T08:26:34;18.30;;;8.80;;
61250;SDS011;47126;47.508;8.590;2023-02-28T08:29:01;18.33;;;9.07;;
61250;SDS011;47126;47.508;8.590;2023-02-28T08:31:27;17.85;;;8.60;;
61250;SDS011;47126;47.508;8.590;2023-02-28T08:33:53;15.73;;;8.55;;
61250;SDS011;47126;47.508;8.590;2023-02-28T08:36:21;17.77;;;9.50;;
61250;SDS011;47126;47.508;8.590;2023-02-28T08:38:47;15.50;;;8.45;;
61250;SDS011;47126;47.508;8.590;2023-02-28T08:41:14;21.20;;;10.45;;
61250;SDS011;47126;47.508;8.590;2023-02-28T08:43:40;28.75;;;12.43;;
61250;SDS011;47126;47.508;8.590;2023-02-28T08:46:07;24.55;;;12.18;;
61250;SDS011;47126;47.508;8.590;2023-02-28T08:48:34;27.00;;;12.35;;
61250;SDS011;47126;47.508;8.590;2023-02-28T08:51:04;24.60;;;12.98;;
61250;SDS011;47126;47.508;8.590;2023-02-28T08:53:31;27.42;;;12.30;;
61250;SDS011;47126;47.508;8.590;2023-02-28T08:56:01;18.90;;;9.75;;
61250;SDS011;47126;47.508;8.590;2023-02-28T08:58:28;17.08;;;8.98;;
61250;SDS011;47126;47.508;8.590;2023-02-28T09:00:54;32.15;;;16.98;;
61250;SDS011;47126;47.508;8.590;2023-02-28T09:03:23;20.08;;;10.50;;
61250;SDS011;47126;47.508;8.590;2023-02-28T09:05:56;19.85;;;9.50;;
61250;SDS011;47126;47.508;8.590;2023-02-28T09:08:23;18.33;;;9.98;;
61250;SDS011;47126;47.508;8.590;2023-02-28T09:10:49;19.63;;;9.77;;
61250;SDS011;47126;47.508;8.590;2023-02-28T09:13:16;15.95;;;8.32;;
61250;SDS011;47126;47.508;8.590;2023-02-28T09:15:42;21.90;;;9.65;;
61250;SDS011;47126;47.508;8.590;2023-02-28T09:18:08;15.45;;;8.50;;
61250;SDS011;47126;47.508;8.590;2023-02-28T09:20:36;21.75;;;9.68;;
61250;SDS011;47126;47.508;8.590;2023-02-28T09:23:03;15.05;;;7.88;;
61250;SDS011;47126;47.508;8.590;2023-02-28T09:25:29;19.17;;;9.13;;
61250;SDS011;47126;47.508;8.590;2023-02-28T09:27:55;19.95;;;9.13;;
61250;SDS011;47126;47.508;8.590;2023-02-28T09:30:21;16.55;;;8.60;;
61250;SDS011;47126;47.508;8.590;2023-02-28T09:32:47;18.98;;;9.65;;
61250;SDS011;47126;47.508;8.590;2023-02-28T09:35:26;18.15;;;9.43;;
61250;SDS011;47126;47.508;8.590;2023-02-28T09:37:52;18.58;;;9.18;;
61250;SDS011;47126;47.508;8.590;2023-02-28T09:40:19;18.85;;;9.95;;
61250;SDS011;47126;47.508;8.590;2023-02-28T09:42:46;20.55;;;8.95;;
61250;SDS011;47126;47.508;8.590;2023-02-28T09:45:56;18.27;;;8.82;;
61250;SDS011;47126;47.508;8.590;2023-02-28T09:48:23;19.23;;;9.05;;
61250;SDS011;47126;47.508;8.590;2023-02-28T09:50:50;18.05;;;8.63;;
61250;SDS011;47126;47.508;8.590;2023-02-28T09:53:21;18.33;;;9.43;;
61250;SDS011;47126;47.508;8.590;2023-02-28T09:55:51;17.58;;;8.68;;
61250;SDS011;47126;47.508;8.590;2023-02-28T09:58:26;14.13;;;7.90;;
61250;SDS011;47126;47.508;8.590;2023-02-28T10:00:56;21.95;;;9.15;;
61250;SDS011;47126;47.508;8.590;2023-02-28T10:03:25;18.70;;;8.75;;
61250;SDS011;47126;47.508;8.590;2023-02-28T10:08:33;21.38;;;9.35;;
61250;SDS011;47126;47.508;8.590;2023-02-28T10:11:06;16.50;;;8.75;;
61250;SDS011;47126;47.508;8.590;2023-02-28T10:13:35;19.05;;;9.05;;
61250;SDS011;47126;47.508;8.590;2023-02-28T10:16:04;16.92;;;8.93;;
61250;SDS011;47126;47.508;8.590;2023-02-28T10:18:37;16.83;;;8.13;;
61250;SDS011;47126;47.508;8.590;2023-02-28T10:21:04;18.90;;;10.20;;
61250;SDS011;47126;47.508;8.590;2023-02-28T10:23:34;17.42;;;9.15;;
61250;SDS011;47126;47.508;8.590;2023-02-28T10:26:08;17.23;;;9.23;;
61250;SDS011;47126;47.508;8.590;2023-02-28T10:28:35;19.20;;;10.32;;
61250;SDS011;47126;47.508;8.590;2023-02-28T10:31:01;19.83;;;10.05;;
61250;SDS011;47126;47.508;8.590;2023-02-28T10:33:34;19.63;;;9.88;;
61250;SDS011;47126;47.508;8.590;2023-02-28T10:36:01;19.85;;;11.25;;
61250;SDS011;47126;47.508;8.590;2023-02-28T10:38:31;19.80;;;9.60;;
61250;SDS011;47126;47.508;8.590;2023-02-28T10:43:33;17.77;;;9.85;;
61250;SDS011;47126;47.508;8.590;2023-02-28T10:48:39;19.55;;;10.13;;
61250;SDS011;47126;47.508;8.590;2023-02-28T10:51:08;21.80;;;10.88;;
61250;SDS011;47126;47.508;8.590;2023-02-28T11:01:24;17.73;;;10.15;;
61250;SDS011;47126;47.508;8.590;2023-02-28T11:03:51;19.63;;;10.18;;
61250;SDS011;47126;47.508;8.590;2023-02-28T11:06:22;20.25;;;10.70;;
61250;SDS011;47126;47.508;8.590;2023-02-28T11:11:15;20.83;;;9.43;;
61250;SDS011;47126;47.508;8.590;2023-02-28T11:13:42;21.52;;;10.45;;
61250;SDS011;47126;47.508;8.590;2023-02-28T11:16:10;20.75;;;10.95;;
61250;SDS011;47126;47.508;8.590;2023-02-28T11:18:53;18.80;;;9.98;;
61250;SDS011;47126;47.508;8.590;2023-02-28T11:21:33;18.23;;;9.63;;
61250;SDS011;47126;47.508;8.590;2023-02-28T11:24:23;20.58;;;10.13;;
61250;SDS011;47126;47.508;8.590;2023-02-28T11:26:50;19.80;;;10.57;;
61250;SDS011;47126;47.508;8.590;2023-02-28T11:34:36;17.73;;;9.75;;
61250;SDS011;47126;47.508;8.590;2023-02-28T11:37:03;18.95;;;9.35;;
61250;SDS011;47126;47.508;8.590;2023-02-28T11:39:30;21.38;;;10.35;;
61250;SDS011;47126;47.508;8.590;2023-02-28T11:46:59;18.13;;;10.13;;
61250;SDS011;47126;47.508;8.590;2023-02-28T11:52:19;19.92;;;9.40;;
61250;SDS011;47126;47.508;8.590;2023-02-28T11:54:57;18.67;;;10.13;;
61250;SDS011;47126;47.508;8.590;2023-02-28T12:00:07;18.92;;;9.77;;
61250;SDS011;47126;47.508;8.590;2023-02-28T12:06:09;19.63;;;9.73;;
61250;SDS011;47126;47.508;8.590;2023-02-28T12:11:05;20.08;;;10.65;;
61250;SDS011;47126;47.508;8.590;2023-02-28T12:24:17;22.88;;;10.60;;
61250;SDS011;47126;47.508;8.590;2023-02-28T12:26:47;19.90;;;9.77;;
61250;SDS011;47126;47.508;8.590;2023-02-28T12:31:45;19.15;;;10.38;;
61250;SDS011;47126;47.508;8.590;2023-02-28T12:34:13;23.15;;;10.55;;
61250;SDS011;47126;47.508;8.590;2023-02-28T12:36:41;19.30;;;10.02;;
61250;SDS011;47126;47.508;8.590;2023-02-28T12:41:40;18.52;;;9.68;;
61250;SDS011;47126;47.508;8.590;2023-02-28T12:44:54;19.75;;;10.40;;
61250;SDS011;47126;47.508;8.590;2023-02-28T12:46:55;17.00;;;9.90;;
61250;SDS011;47126;47.508;8.590;2023-02-28T12:49:27;19.30;;;9.98;;
61250;SDS011;47126;47.508;8.590;2023-02-28T12:51:56;19.40;;;10.93;;
61250;SDS011;47126;47.508;8.590;2023-02-28T12:57:35;21.63;;;11.80;;
61250;SDS011;47126;47.508;8.590;2023-02-28T13:00:13;20.67;;;10.48;;
61250;SDS011;47126;47.508;8.590;2023-02-28T13:07:58;21.35;;;10.82;;
61250;SDS011;47126;47.508;8.590;2023-02-28T13:13:13;23.73;;;10.55;;
61250;SDS011;47126;47.508;8.590;2023-02-28T13:15:40;24.42;;;11.75;;
61250;SDS011;47126;47.508;8.590;2023-02-28T13:18:24;21.65;;;10.50;;
61250;SDS011;47126;47.508;8.590;2023-02-28T13:20:56;21.73;;;10.82;;
61250;SDS011;47126;47.508;8.590;2023-02-28T13:26:03;23.58;;;12.13;;
61250;SDS011;47126;47.508;8.590;2023-02-28T13:31:14;31.13;;;11.85;;
61250;SDS011;47126;47.508;8.590;2023-02-28T13:39:00;22.70;;;12.30;;
61250;SDS011;47126;47.508;8.590;2023-02-28T13:44:02;21.05;;;11.18;;
61250;SDS011;47126;47.508;8.590;2023-02-28T13:46:30;23.55;;;12.48;;
61250;SDS011;47126;47.508;8.590;2023-02-28T13:48:56;22.50;;;11.73;;
61250;SDS011;47126;47.508;8.590;2023-02-28T13:51:39;23.05;;;11.13;;
61250;SDS011;47126;47.508;8.590;2023-02-28T13:54:17;20.88;;;11.40;;
61250;SDS011;47126;47.508;8.590;2023-02-28T13:56:48;23.65;;;12.18;;
61250;SDS011;47126;47.508;8.590;2023-02-28T13:59:23;21.27;;;11.55;;
61250;SDS011;47126;47.508;8.590;2023-02-28T14:01:59;22.38;;;11.38;;
61250;SDS011;47126;47.508;8.590;2023-02-28T14:04:43;22.00;;;11.27;;
61250;SDS011;47126;47.508;8.590;2023-02-28T14:07:19;23.58;;;11.35;;
61250;SDS011;47126;47.508;8.590;2023-02-28T14:09:49;21.90;;;12.05;;
61250;SDS011;47126;47.508;8.590;2023-02-28T14:15:02;21.30;;;11.50;;
61250;SDS011;47126;47.508;8.590;2023-02-28T14:17:30;22.83;;;11.68;;
61250;SDS011;47126;47.508;8.590;2023-02-28T14:19:57;23.42;;;11.55;;
61250;SDS011;47126;47.508;8.590;2023-02-28T14:33:10;30.35;;;13.38;;
61250;SDS011;47126;47.508;8.590;2023-02-28T14:35:43;22.63;;;12.18;;
61250;SDS011;47126;47.508;8.590;2023-02-28T14:38:20;24.83;;;13.02;;
61250;SDS011;47126;47.508;8.590;2023-02-28T14:40:47;23.15;;;11.88;;
61250;SDS011;47126;47.508;8.590;2023-02-28T14:43:21;24.83;;;13.02;;
61250;SDS011;47126;47.508;8.590;2023-02-28T14:45:52;21.80;;;12.10;;
61250;SDS011;47126;47.508;8.590;2023-02-28T14:50:55;27.75;;;12.88;;
61250;SDS011;47126;47.508;8.590;2023-02-28T14:53:22;27.13;;;13.27;;
61250;SDS011;47126;47.508;8.590;2023-02-28T14:55:49;27.35;;;14.27;;
61250;SDS011;47126;47.508;8.590;2023-02-28T14:58:31;29.90;;;13.75;;
61250;SDS011;47126;47.508;8.590;2023-02-28T15:01:01;25.92;;;13.80;;
61250;SDS011;47126;47.508;8.590;2023-02-28T15:03:31;25.30;;;13.60;;
61250;SDS011;47126;47.508;8.590;2023-02-28T15:06:02;31.98;;;13.93;;
61250;SDS011;47126;47.508;8.590;2023-02-28T15:08:28;24.65;;;13.15;;
61250;SDS011;47126;47.508;8.590;2023-02-28T15:11:01;26.02;;;12.77;;
61250;SDS011;47126;47.508;8.590;2023-02-28T15:13:36;27.13;;;13.70;;
61250;SDS011;47126;47.508;8.590;2023-02-28T15:16:04;26.02;;;13.38;;
61250;SDS011;47126;47.508;8.590;2023-02-28T15:21:07;25.40;;;13.38;;
61250;SDS011;47126;47.508;8.590;2023-02-28T15:23:34;25.42;;;14.20;;
61250;SDS011;47126;47.508;8.590;2023-02-28T15:26:01;26.45;;;14.02;;
61250;SDS011;47126;47.508;8.590;2023-02-28T15:28:28;29.48;;;14.05;;
61250;SDS011;47126;47.508;8.590;2023-02-28T15:30:58;24.77;;;12.95;;
61250;SDS011;47126;47.508;8.590;2023-02-28T15:33:26;28.27;;;13.77;;
61250;SDS011;47126;47.508;8.590;2023-02-28T15:36:03;26.70;;;13.63;;
61250;SDS011;47126;47.508;8.590;2023-02-28T15:38:29;25.75;;;13.80;;
61250;SDS011;47126;47.508;8.590;2023-02-28T15:40:56;24.25;;;12.98;;
61250;SDS011;47126;47.508;8.590;2023-02-28T15:45:53;28.27;;;13.15;;
61250;SDS011;47126;47.508;8.590;2023-02-28T15:48:22;30.95;;;14.90;;
61250;SDS011;47126;47.508;8.590;2023-02-28T15:51:07;25.95;;;14.00;;
61250;SDS011;47126;47.508;8.590;2023-02-28T15:53:47;27.80;;;13.93;;
61250;SDS011;47126;47.508;8.590;2023-02-28T15:56:26;27.45;;;14.63;;
61250;SDS011;47126;47.508;8.590;2023-02-28T15:58:54;28.85;;;14.77;;
61250;SDS011;47126;47.508;8.590;2023-02-28T16:01:25;30.58;;;15.25;;
61250;SDS011;47126;47.508;8.590;2023-02-28T16:03:53;28.58;;;14.35;;
61250;SDS011;47126;47.508;8.590;2023-02-28T16:08:47;25.10;;;13.00;;
61250;SDS011;47126;47.508;8.590;2023-02-28T16:11:14;26.20;;;14.00;;
61250;SDS011;47126;47.508;8.590;2023-02-28T16:13:40;24.88;;;13.55;;
61250;SDS011;47126;47.508;8.590;2023-02-28T16:16:06;29.58;;;14.90;;
61250;SDS011;47126;47.508;8.590;2023-02-28T16:18:32;29.17;;;15.18;;
61250;SDS011;47126;47.508;8.590;2023-02-28T16:20:58;31.05;;;13.80;;
61250;SDS011;47126;47.508;8.590;2023-02-28T16:23:24;27.48;;;14.85;;
61250;SDS011;47126;47.508;8.590;2023-02-28T16:25:50;28.65;;;14.27;;
61250;SDS011;47126;47.508;8.590;2023-02-28T16:28:30;29.02;;;14.02;;
61250;SDS011;47126;47.508;8.590;2023-02-28T16:30:57;28.77;;;14.30;;
61250;SDS011;47126;47.508;8.590;2023-02-28T16:33:23;28.10;;;13.93;;
61250;SDS011;47126;47.508;8.590;2023-02-28T16:35:49;29.52;;;15.90;;
61250;SDS011;47126;47.508;8.590;2023-02-28T16:38:15;29.70;;;14.35;;
61250;SDS011;47126;47.508;8.590;2023-02-28T16:40:41;27.33;;;14.25;;
61250;SDS011;47126;47.508;8.590;2023-02-28T16:43:09;29.77;;;15.00;;
61250;SDS011;47126;47.508;8.590;2023-02-28T16:45:39;31.58;;;14.88;;
61250;SDS011;47126;47.508;8.590;2023-02-28T16:48:05;29.52;;;15.52;;
61250;SDS011;47126;47.508;8.590;2023-02-28T16:50:31;33.05;;;16.27;;